sensor_id;sensor_type;location;lat;lon;timestamp;P1;durP1;ratioP1;P2;durP2;ratioP2
48743;SDS011;34538;48.836;9.174;2023-04-03T00:00:41;3.25;;;1.83;;
48743;SDS011;34538;48.836;9.174;2023-04-03T00:03:08;2.78;;;2.00;;
48743;SDS011;34538;48.836;9.174;2023-04-03T00:05:35;4.53;;;2.13;;
48743;SDS011;34538;48.836;9.174;2023-04-03T00:08:03;3.78;;;1.90;;
48743;SDS011;34538;48.836;9.174;2023-04-03T00:10:33;3.80;;;1.92;;
48743;SDS011;34538;48.836;9.174;2023-04-03T00:13:00;3.03;;;1.90;;
48743;SDS011;34538;48.836;9.174;2023-04-03T00:15:27;2.30;;;1.80;;
48743;SDS011;34538;48.836;9.174;2023-04-03T00:17:54;3.25;;;1.80;;
48743;SDS011;34538;48.836;9.174;2023-04-03T00:20:20;4.63;;;1.67;;
48743;SDS011;34538;48.836;9.174;2023-04-03T00:22:47;7.47;;;2.53;;
48743;SDS011;34538;48.836;9.174;2023-04-03T00:25:15;2.92;;;2.05;;
48743;SDS011;34538;48.836;9.174;2023-04-03T00:27:42;3.22;;;2.20;;
48743;SDS011;34538;48.836;9.174;2023-04-03T00:30:10;3.15;;;1.73;;
48743;SDS011;34538;48.836;9.174;2023-04-03T00:32:39;2.88;;;1.80;;
48743;SDS011;34538;48.836;9.174;2023-04-03T00:35:06;3.33;;;1.70;;
48743;SDS011;34538;48.836;9.174;2023-04-03T00:37:34;2.08;;;1.73;;
48743;SDS011;34538;48.836;9.174;2023-04-03T00:40:00;2.90;;;2.00;;
48743;SDS011;34538;48.836;9.174;2023-04-03T00:42:29;4.75;;;2.10;;
48743;SDS011;34538;48.836;9.174;2023-04-03T00:45:22;2.88;;;1.95;;
48743;SDS011;34538;48.836;9.174;2023-04-03T00:47:51;4.20;;;2.00;;
48743;SDS011;34538;48.836;9.174;2023-04-03T00:50:19;4.47;;;2.20;;
48743;SDS011;34538;48.836;9.174;2023-04-03T00:52:46;4.50;;;2.38;;
48743;SDS011;34538;48.836;9.174;2023-04-03T00:55:14;4.60;;;2.22;;
48743;SDS011;34538;48.836;9.174;2023-04-03T00:57:43;3.22;;;2.15;;
48743;SDS011;34538;48.836;9.174;2023-04-03T01:00:13;7.20;;;2.50;;
48743;SDS011;34538;48.836;9.174;2023-04-03T01:02:42;4.10;;;1.90;;
48743;SDS011;34538;48.836;9.174;2023-04-03T01:05:11;4.90;;;2.10;;
48743;SDS011;34538;48.836;9.174;2023-04-03T01:07:43;3.00;;;2.20;;
48743;SDS011;34538;48.836;9.174;2023-04-03T01:10:11;3.33;;;1.58;;
48743;SDS011;34538;48.836;9.174;2023-04-03T01:12:41;4.95;;;1.98;;
48743;SDS011;34538;48.836;9.174;2023-04-03T01:15:12;2.75;;;2.17;;
48743;SDS011;34538;48.836;9.174;2023-04-03T01:17:42;5.25;;;2.03;;
48743;SDS011;34538;48.836;9.174;2023-04-03T01:20:24;3.15;;;2.03;;
48743;SDS011;34538;48.836;9.174;2023-04-03T01:23:19;5.13;;;2.47;;
48743;SDS011;34538;48.836;9.174;2023-04-03T01:25:54;5.18;;;2.00;;
48743;SDS011;34538;48.836;9.174;2023-04-03T01:28:24;3.58;;;2.08;;
48743;SDS011;34538;48.836;9.174;2023-04-03T01:30:54;5.20;;;2.20;;
48743;SDS011;34538;48.836;9.174;2023-04-03T01:33:30;4.05;;;2.42;;
48743;SDS011;34538;48.836;9.174;2023-04-03T01:35:57;3.08;;;2.00;;
48743;SDS011;34538;48.836;9.174;2023-04-03T01:38:25;3.33;;;2.22;;
48743;SDS011;34538;48.836;9.174;2023-04-03T01:40:51;2.20;;;1.75;;
48743;SDS011;34538;48.836;9.174;2023-04-03T01:43:18;4.43;;;1.92;;
48743;SDS011;34538;48.836;9.174;2023-04-03T01:45:45;3.97;;;2.28;;
48743;SDS011;34538;48.836;9.174;2023-04-03T01:48:15;4.90;;;2.08;;
48743;SDS011;34538;48.836;9.174;2023-04-03T01:50:44;5.78;;;2.22;;
48743;SDS011;34538;48.836;9.174;2023-04-03T01:53:11;2.97;;;2.08;;
48743;SDS011;34538;48.836;9.174;2023-04-03T01:55:38;2.53;;;1.90;;
48743;SDS011;34538;48.836;9.174;2023-04-03T01:58:05;3.10;;;1.85;;
48743;SDS011;34538;48.836;9.174;2023-04-03T02:00:32;3.75;;;2.35;;
48743;SDS011;34538;48.836;9.174;2023-04-03T02:02:59;3.53;;;1.88;;
48743;SDS011;34538;48.836;9.174;2023-04-03T02:05:26;3.35;;;2.00;;
48743;SDS011;34538;48.836;9.174;2023-04-03T02:07:54;6.03;;;2.25;;
48743;SDS011;34538;48.836;9.174;2023-04-03T02:10:21;3.78;;;2.35;;
48743;SDS011;34538;48.836;9.174;2023-04-03T02:12:48;3.17;;;1.77;;
48743;SDS011;34538;48.836;9.174;2023-04-03T02:15:16;3.63;;;2.13;;
48743;SDS011;34538;48.836;9.174;2023-04-03T02:17:42;3.80;;;2.22;;
48743;SDS011;34538;48.836;9.174;2023-04-03T02:20:10;4.15;;;2.33;;
48743;SDS011;34538;48.836;9.174;2023-04-03T02:22:37;4.03;;;2.25;;
48743;SDS011;34538;48.836;9.174;2023-04-03T02:25:06;3.95;;;2.08;;
48743;SDS011;34538;48.836;9.174;2023-04-03T02:27:33;3.90;;;2.42;;
48743;SDS011;34538;48.836;9.174;2023-04-03T02:30:00;4.20;;;2.25;;
48743;SDS011;34538;48.836;9.174;2023-04-03T02:32:27;5.13;;;2.25;;
48743;SDS011;34538;48.836;9.174;2023-04-03T02:34:55;5.85;;;2.35;;
48743;SDS011;34538;48.836;9.174;2023-04-03T02:37:22;3.75;;;2.17;;
48743;SDS011;34538;48.836;9.174;2023-04-03T02:39:51;3.15;;;1.83;;
48743;SDS011;34538;48.836;9.174;2023-04-03T02:42:20;3.05;;;1.92;;
48743;SDS011;34538;48.836;9.174;2023-04-03T02:44:47;3.30;;;1.92;;
48743;SDS011;34538;48.836;9.174;2023-04-03T02:47:13;3.53;;;1.92;;
48743;SDS011;34538;48.836;9.174;2023-04-03T02:49:40;5.50;;;2.20;;
48743;SDS011;34538;48.836;9.174;2023-04-03T02:52:09;4.65;;;2.47;;
48743;SDS011;34538;48.836;9.174;2023-04-03T02:54:36;2.92;;;1.63;;
48743;SDS011;34538;48.836;9.174;2023-04-03T02:57:06;4.43;;;1.90;;
48743;SDS011;34538;48.836;9.174;2023-04-03T02:59:35;3.92;;;1.88;;
48743;SDS011;34538;48.836;9.174;2023-04-03T03:02:02;2.88;;;1.98;;
48743;SDS011;34538;48.836;9.174;2023-04-03T03:04:29;3.90;;;1.90;;
48743;SDS011;34538;48.836;9.174;2023-04-03T03:06:56;2.97;;;1.92;;
48743;SDS011;34538;48.836;9.174;2023-04-03T03:09:23;2.95;;;1.80;;
48743;SDS011;34538;48.836;9.174;2023-04-03T03:11:50;5.82;;;1.90;;
48743;SDS011;34538;48.836;9.174;2023-04-03T03:14:17;4.30;;;1.90;;
48743;SDS011;34538;48.836;9.174;2023-04-03T03:16:45;2.28;;;1.75;;
48743;SDS011;34538;48.836;9.174;2023-04-03T03:19:12;2.70;;;1.83;;
48743;SDS011;34538;48.836;9.174;2023-04-03T03:21:39;2.60;;;1.85;;
48743;SDS011;34538;48.836;9.174;2023-04-03T03:24:06;3.00;;;1.98;;
48743;SDS011;34538;48.836;9.174;2023-04-03T03:26:33;2.78;;;1.73;;
48743;SDS011;34538;48.836;9.174;2023-04-03T03:29:01;4.13;;;1.80;;
48743;SDS011;34538;48.836;9.174;2023-04-03T03:31:28;4.50;;;2.00;;
48743;SDS011;34538;48.836;9.174;2023-04-03T03:33:57;5.65;;;1.73;;
48743;SDS011;34538;48.836;9.174;2023-04-03T03:36:24;2.40;;;1.52;;
48743;SDS011;34538;48.836;9.174;2023-04-03T03:38:51;2.38;;;1.92;;
48743;SDS011;34538;48.836;9.174;2023-04-03T03:41:18;4.40;;;2.30;;
48743;SDS011;34538;48.836;9.174;2023-04-03T03:43:46;3.65;;;1.95;;
48743;SDS011;34538;48.836;9.174;2023-04-03T03:46:14;3.28;;;1.80;;
48743;SDS011;34538;48.836;9.174;2023-04-03T03:48:41;2.28;;;1.65;;
48743;SDS011;34538;48.836;9.174;2023-04-03T03:51:09;3.63;;;1.92;;
48743;SDS011;34538;48.836;9.174;2023-04-03T03:53:37;2.67;;;1.88;;
48743;SDS011;34538;48.836;9.174;2023-04-03T03:56:08;3.07;;;1.70;;
48743;SDS011;34538;48.836;9.174;2023-04-03T03:58:38;2.15;;;1.60;;
48743;SDS011;34538;48.836;9.174;2023-04-03T04:01:05;4.38;;;1.95;;
48743;SDS011;34538;48.836;9.174;2023-04-03T04:03:39;2.25;;;1.55;;
48743;SDS011;34538;48.836;9.174;2023-04-03T04:06:09;3.55;;;1.70;;
48743;SDS011;34538;48.836;9.174;2023-04-03T04:08:36;4.28;;;2.10;;
48743;SDS011;34538;48.836;9.174;2023-04-03T04:11:05;2.97;;;1.60;;
48743;SDS011;34538;48.836;9.174;2023-04-03T04:13:33;4.13;;;1.70;;
48743;SDS011;34538;48.836;9.174;2023-04-03T04:16:00;3.70;;;2.08;;
48743;SDS011;34538;48.836;9.174;2023-04-03T04:18:28;3.53;;;2.10;;
48743;SDS011;34538;48.836;9.174;2023-04-03T04:20:55;2.65;;;1.70;;
48743;SDS011;34538;48.836;9.174;2023-04-03T04:23:24;2.78;;;1.77;;
48743;SDS011;34538;48.836;9.174;2023-04-03T04:25:52;5.82;;;2.30;;
48743;SDS011;34538;48.836;9.174;2023-04-03T04:28:20;4.07;;;1.85;;
48743;SDS011;34538;48.836;9.174;2023-04-03T04:30:50;2.45;;;1.70;;
48743;SDS011;34538;48.836;9.174;2023-04-03T04:33:18;4.38;;;2.08;;
48743;SDS011;34538;48.836;9.174;2023-04-03T04:35:46;3.28;;;2.05;;
48743;SDS011;34538;48.836;9.174;2023-04-03T04:38:14;2.85;;;1.95;;
48743;SDS011;34538;48.836;9.174;2023-04-03T04:40:43;3.92;;;2.15;;
48743;SDS011;34538;48.836;9.174;2023-04-03T04:43:10;3.05;;;1.80;;
48743;SDS011;34538;48.836;9.174;2023-04-03T04:45:40;3.72;;;2.05;;
48743;SDS011;34538;48.836;9.174;2023-04-03T04:48:08;2.95;;;1.88;;
48743;SDS011;34538;48.836;9.174;2023-04-03T04:50:35;2.78;;;1.55;;
48743;SDS011;34538;48.836;9.174;2023-04-03T04:53:02;3.22;;;1.83;;
48743;SDS011;34538;48.836;9.174;2023-04-03T04:55:30;3.03;;;1.70;;
48743;SDS011;34538;48.836;9.174;2023-04-03T04:57:58;2.20;;;1.33;;
48743;SDS011;34538;48.836;9.174;2023-04-03T05:00:26;3.83;;;1.85;;
48743;SDS011;34538;48.836;9.174;2023-04-03T05:02:53;3.72;;;1.98;;
48743;SDS011;34538;48.836;9.174;2023-04-03T05:05:20;4.55;;;1.90;;
48743;SDS011;34538;48.836;9.174;2023-04-03T05:07:47;4.68;;;1.90;;
48743;SDS011;34538;48.836;9.174;2023-04-03T05:10:15;2.30;;;1.80;;
48743;SDS011;34538;48.836;9.174;2023-04-03T05:12:43;3.38;;;2.13;;
48743;SDS011;34538;48.836;9.174;2023-04-03T05:15:11;3.70;;;1.92;;
48743;SDS011;34538;48.836;9.174;2023-04-03T05:17:38;3.13;;;1.95;;
48743;SDS011;34538;48.836;9.174;2023-04-03T05:20:09;3.17;;;2.05;;
48743;SDS011;34538;48.836;9.174;2023-04-03T05:22:37;5.03;;;1.73;;
48743;SDS011;34538;48.836;9.174;2023-04-03T05:25:07;2.28;;;1.70;;
48743;SDS011;34538;48.836;9.174;2023-04-03T05:27:35;2.67;;;1.55;;
48743;SDS011;34538;48.836;9.174;2023-04-03T05:30:03;3.15;;;1.40;;
48743;SDS011;34538;48.836;9.174;2023-04-03T05:32:33;3.45;;;1.73;;
48743;SDS011;34538;48.836;9.174;2023-04-03T05:35:25;3.53;;;1.65;;
48743;SDS011;34538;48.836;9.174;2023-04-03T05:37:56;4.00;;;2.08;;
48743;SDS011;34538;48.836;9.174;2023-04-03T05:40:25;5.53;;;1.80;;
48743;SDS011;34538;48.836;9.174;2023-04-03T05:43:05;5.53;;;1.98;;
48743;SDS011;34538;48.836;9.174;2023-04-03T05:45:34;3.65;;;1.85;;
48743;SDS011;34538;48.836;9.174;2023-04-03T05:48:03;3.17;;;1.70;;
48743;SDS011;34538;48.836;9.174;2023-04-03T05:50:31;3.05;;;1.70;;
48743;SDS011;34538;48.836;9.174;2023-04-03T05:52:58;3.38;;;2.05;;
48743;SDS011;34538;48.836;9.174;2023-04-03T05:55:28;4.95;;;2.28;;
48743;SDS011;34538;48.836;9.174;2023-04-03T05:57:55;2.42;;;1.80;;
48743;SDS011;34538;48.836;9.174;2023-04-03T06:00:22;3.65;;;1.58;;
48743;SDS011;34538;48.836;9.174;2023-04-03T06:02:58;2.97;;;1.73;;
48743;SDS011;34538;48.836;9.174;2023-04-03T06:05:27;3.78;;;1.80;;
48743;SDS011;34538;48.836;9.174;2023-04-03T06:07:53;4.10;;;1.80;;
48743;SDS011;34538;48.836;9.174;2023-04-03T06:10:22;3.05;;;1.83;;
48743;SDS011;34538;48.836;9.174;2023-04-03T06:12:49;2.78;;;1.70;;
48743;SDS011;34538;48.836;9.174;2023-04-03T06:15:16;2.55;;;1.73;;
48743;SDS011;34538;48.836;9.174;2023-04-03T06:17:43;2.67;;;1.70;;
48743;SDS011;34538;48.836;9.174;2023-04-03T06:20:11;2.35;;;1.70;;
48743;SDS011;34538;48.836;9.174;2023-04-03T06:22:39;4.70;;;2.35;;
48743;SDS011;34538;48.836;9.174;2023-04-03T06:25:07;3.65;;;1.77;;
48743;SDS011;34538;48.836;9.174;2023-04-03T06:27:35;10.55;;;1.95;;
48743;SDS011;34538;48.836;9.174;2023-04-03T06:30:03;4.88;;;1.92;;
48743;SDS011;34538;48.836;9.174;2023-04-03T06:32:31;7.50;;;1.80;;
48743;SDS011;34538;48.836;9.174;2023-04-03T06:34:58;3.92;;;1.77;;
48743;SDS011;34538;48.836;9.174;2023-04-03T06:37:25;2.65;;;1.92;;
48743;SDS011;34538;48.836;9.174;2023-04-03T06:39:55;4.43;;;1.80;;
48743;SDS011;34538;48.836;9.174;2023-04-03T06:42:22;2.35;;;1.75;;
48743;SDS011;34538;48.836;9.174;2023-04-03T06:45:10;3.45;;;1.60;;
48743;SDS011;34538;48.836;9.174;2023-04-03T06:47:37;2.97;;;2.00;;
48743;SDS011;34538;48.836;9.174;2023-04-03T06:50:04;3.78;;;1.90;;
48743;SDS011;34538;48.836;9.174;2023-04-03T06:52:34;2.25;;;1.58;;
48743;SDS011;34538;48.836;9.174;2023-04-03T06:55:02;3.28;;;2.15;;
48743;SDS011;34538;48.836;9.174;2023-04-03T06:57:29;3.10;;;2.10;;
48743;SDS011;34538;48.836;9.174;2023-04-03T06:59:56;3.70;;;1.70;;
48743;SDS011;34538;48.836;9.174;2023-04-03T07:02:23;2.97;;;2.05;;
48743;SDS011;34538;48.836;9.174;2023-04-03T07:04:50;4.28;;;2.00;;
48743;SDS011;34538;48.836;9.174;2023-04-03T07:07:17;4.90;;;2.17;;
48743;SDS011;34538;48.836;9.174;2023-04-03T07:09:43;3.28;;;1.95;;
48743;SDS011;34538;48.836;9.174;2023-04-03T07:12:13;3.20;;;2.10;;
48743;SDS011;34538;48.836;9.174;2023-04-03T07:14:40;3.05;;;1.85;;
48743;SDS011;34538;48.836;9.174;2023-04-03T07:17:07;3.70;;;1.90;;
48743;SDS011;34538;48.836;9.174;2023-04-03T07:19:34;5.45;;;2.10;;
48743;SDS011;34538;48.836;9.174;2023-04-03T07:22:01;3.53;;;1.90;;
48743;SDS011;34538;48.836;9.174;2023-04-03T07:24:28;2.70;;;1.92;;
48743;SDS011;34538;48.836;9.174;2023-04-03T07:26:55;3.22;;;1.88;;
48743;SDS011;34538;48.836;9.174;2023-04-03T07:29:23;3.90;;;2.17;;
48743;SDS011;34538;48.836;9.174;2023-04-03T07:31:50;2.80;;;1.88;;
48743;SDS011;34538;48.836;9.174;2023-04-03T07:34:17;2.95;;;2.10;;
48743;SDS011;34538;48.836;9.174;2023-04-03T07:36:44;2.92;;;2.20;;
48743;SDS011;34538;48.836;9.174;2023-04-03T07:39:11;6.28;;;1.80;;
48743;SDS011;34538;48.836;9.174;2023-04-03T07:41:38;6.18;;;2.10;;
48743;SDS011;34538;48.836;9.174;2023-04-03T07:44:05;3.50;;;1.90;;
48743;SDS011;34538;48.836;9.174;2023-04-03T07:46:36;6.40;;;2.00;;
48743;SDS011;34538;48.836;9.174;2023-04-03T07:49:02;2.75;;;1.70;;
48743;SDS011;34538;48.836;9.174;2023-04-03T07:51:29;4.13;;;1.65;;
48743;SDS011;34538;48.836;9.174;2023-04-03T07:53:56;4.43;;;1.90;;
48743;SDS011;34538;48.836;9.174;2023-04-03T07:56:23;4.63;;;2.22;;
48743;SDS011;34538;48.836;9.174;2023-04-03T07:58:51;3.58;;;2.00;;
48743;SDS011;34538;48.836;9.174;2023-04-03T08:01:18;3.65;;;2.15;;
48743;SDS011;34538;48.836;9.174;2023-04-03T08:03:47;3.03;;;1.98;;
48743;SDS011;34538;48.836;9.174;2023-04-03T08:06:13;4.05;;;2.03;;
48743;SDS011;34538;48.836;9.174;2023-04-03T08:08:41;3.95;;;2.25;;
48743;SDS011;34538;48.836;9.174;2023-04-03T08:11:09;3.35;;;1.75;;
48743;SDS011;34538;48.836;9.174;2023-04-03T08:13:36;2.92;;;2.10;;
48743;SDS011;34538;48.836;9.174;2023-04-03T08:16:07;6.28;;;2.55;;
48743;SDS011;34538;48.836;9.174;2023-04-03T08:18:36;6.30;;;2.42;;
48743;SDS011;34538;48.836;9.174;2023-04-03T08:21:08;7.28;;;2.33;;
48743;SDS011;34538;48.836;9.174;2023-04-03T08:23:36;4.57;;;2.30;;
48743;SDS011;34538;48.836;9.174;2023-04-03T08:26:07;5.72;;;2.15;;
48743;SDS011;34538;48.836;9.174;2023-04-03T08:31:02;4.57;;;2.28;;
48743;SDS011;34538;48.836;9.174;2023-04-03T08:33:32;2.67;;;1.77;;
48743;SDS011;34538;48.836;9.174;2023-04-03T08:36:01;4.63;;;2.40;;
48743;SDS011;34538;48.836;9.174;2023-04-03T08:38:30;4.68;;;2.17;;
48743;SDS011;34538;48.836;9.174;2023-04-03T08:41:01;4.78;;;2.55;;
48743;SDS011;34538;48.836;9.174;2023-04-03T08:43:40;2.55;;;1.88;;
48743;SDS011;34538;48.836;9.174;2023-04-03T08:46:18;5.25;;;2.20;;
48743;SDS011;34538;48.836;9.174;2023-04-03T08:48:51;4.15;;;1.95;;
48743;SDS011;34538;48.836;9.174;2023-04-03T08:51:19;3.05;;;2.15;;
48743;SDS011;34538;48.836;9.174;2023-04-03T08:53:51;2.38;;;1.65;;
48743;SDS011;34538;48.836;9.174;2023-04-03T08:56:23;3.20;;;1.90;;
48743;SDS011;34538;48.836;9.174;2023-04-03T08:58:52;5.68;;;2.50;;
48743;SDS011;34538;48.836;9.174;2023-04-03T09:01:24;3.88;;;2.17;;
48743;SDS011;34538;48.836;9.174;2023-04-03T09:03:56;5.10;;;1.92;;
48743;SDS011;34538;48.836;9.174;2023-04-03T09:06:23;4.50;;;2.00;;
48743;SDS011;34538;48.836;9.174;2023-04-03T09:08:59;2.67;;;1.90;;
48743;SDS011;34538;48.836;9.174;2023-04-03T09:11:37;4.18;;;2.13;;
48743;SDS011;34538;48.836;9.174;2023-04-03T09:14:13;2.78;;;2.03;;
48743;SDS011;34538;48.836;9.174;2023-04-03T09:16:52;2.70;;;1.70;;
48743;SDS011;34538;48.836;9.174;2023-04-03T09:19:24;3.65;;;1.88;;
48743;SDS011;34538;48.836;9.174;2023-04-03T09:22:02;4.95;;;1.60;;
48743;SDS011;34538;48.836;9.174;2023-04-03T09:24:39;3.22;;;1.77;;
48743;SDS011;34538;48.836;9.174;2023-04-03T09:27:22;1.88;;;1.55;;
48743;SDS011;34538;48.836;9.174;2023-04-03T09:29:49;2.47;;;1.58;;
48743;SDS011;34538;48.836;9.174;2023-04-03T09:32:21;2.88;;;1.60;;
48743;SDS011;34538;48.836;9.174;2023-04-03T09:34:53;3.97;;;1.85;;
48743;SDS011;34538;48.836;9.174;2023-04-03T09:40:12;3.38;;;1.90;;
48743;SDS011;34538;48.836;9.174;2023-04-03T09:42:56;1.92;;;1.73;;
48743;SDS011;34538;48.836;9.174;2023-04-03T09:45:25;4.88;;;2.22;;
48743;SDS011;34538;48.836;9.174;2023-04-03T09:48:03;4.32;;;1.88;;
48743;SDS011;34538;48.836;9.174;2023-04-03T09:50:32;5.00;;;1.90;;
48743;SDS011;34538;48.836;9.174;2023-04-03T09:53:03;5.10;;;1.90;;
48743;SDS011;34538;48.836;9.174;2023-04-03T09:55:34;3.15;;;2.00;;
48743;SDS011;34538;48.836;9.174;2023-04-03T09:58:22;4.45;;;1.52;;
48743;SDS011;34538;48.836;9.174;2023-04-03T10:00:53;4.43;;;1.63;;
48743;SDS011;34538;48.836;9.174;2023-04-03T10:03:23;3.50;;;1.95;;
48743;SDS011;34538;48.836;9.174;2023-04-03T10:05:53;2.05;;;1.55;;
48743;SDS011;34538;48.836;9.174;2023-04-03T10:08:21;4.50;;;1.70;;
48743;SDS011;34538;48.836;9.174;2023-04-03T10:11:09;4.72;;;1.70;;
48743;SDS011;34538;48.836;9.174;2023-04-03T10:13:54;4.18;;;2.00;;
48743;SDS011;34538;48.836;9.174;2023-04-03T10:16:25;3.80;;;1.70;;
48743;SDS011;34538;48.836;9.174;2023-04-03T10:19:05;3.60;;;1.70;;
48743;SDS011;34538;48.836;9.174;2023-04-03T10:21:46;2.85;;;1.50;;
48743;SDS011;34538;48.836;9.174;2023-04-03T10:24:18;3.83;;;1.80;;
48743;SDS011;34538;48.836;9.174;2023-04-03T10:26:54;2.67;;;1.52;;
48743;SDS011;34538;48.836;9.174;2023-04-03T10:29:27;2.58;;;1.50;;
48743;SDS011;34538;48.836;9.174;2023-04-03T10:32:02;2.20;;;1.50;;
48743;SDS011;34538;48.836;9.174;2023-04-03T10:34:51;3.22;;;1.80;;
48743;SDS011;34538;48.836;9.174;2023-04-03T10:37:23;2.10;;;1.65;;
48743;SDS011;34538;48.836;9.174;2023-04-03T10:39:54;3.78;;;1.73;;
48743;SDS011;34538;48.836;9.174;2023-04-03T10:42:28;2.30;;;1.20;;
48743;SDS011;34538;48.836;9.174;2023-04-03T10:45:10;2.67;;;1.42;;
48743;SDS011;34538;48.836;9.174;2023-04-03T10:47:48;2.92;;;1.50;;
48743;SDS011;34538;48.836;9.174;2023-04-03T10:50:25;2.20;;;1.48;;
48743;SDS011;34538;48.836;9.174;2023-04-03T10:53:00;2.10;;;1.58;;
48743;SDS011;34538;48.836;9.174;2023-04-03T10:55:35;2.80;;;1.40;;
48743;SDS011;34538;48.836;9.174;2023-04-03T10:58:10;1.65;;;1.40;;
48743;SDS011;34538;48.836;9.174;2023-04-03T11:00:45;4.13;;;1.63;;
48743;SDS011;34538;48.836;9.174;2023-04-03T11:03:16;2.10;;;1.17;;
48743;SDS011;34538;48.836;9.174;2023-04-03T11:05:51;3.15;;;1.55;;
48743;SDS011;34538;48.836;9.174;2023-04-03T11:08:23;4.53;;;1.58;;
48743;SDS011;34538;48.836;9.174;2023-04-03T11:10:55;1.58;;;0.98;;
48743;SDS011;34538;48.836;9.174;2023-04-03T11:13:28;2.40;;;1.30;;
48743;SDS011;34538;48.836;9.174;2023-04-03T11:16:00;2.90;;;1.38;;
48743;SDS011;34538;48.836;9.174;2023-04-03T11:18:31;3.22;;;1.02;;
48743;SDS011;34538;48.836;9.174;2023-04-03T11:21:02;2.25;;;1.20;;
48743;SDS011;34538;48.836;9.174;2023-04-03T11:23:34;3.55;;;1.40;;
48743;SDS011;34538;48.836;9.174;2023-04-03T11:26:09;4.03;;;1.20;;
48743;SDS011;34538;48.836;9.174;2023-04-03T11:28:40;2.30;;;1.15;;
48743;SDS011;34538;48.836;9.174;2023-04-03T11:31:13;3.97;;;1.70;;
48743;SDS011;34538;48.836;9.174;2023-04-03T11:33:51;3.35;;;1.20;;
48743;SDS011;34538;48.836;9.174;2023-04-03T11:36:28;3.15;;;1.30;;
48743;SDS011;34538;48.836;9.174;2023-04-03T11:38:58;3.60;;;1.42;;
48743;SDS011;34538;48.836;9.174;2023-04-03T11:41:33;4.07;;;1.20;;
48743;SDS011;34538;48.836;9.174;2023-04-03T11:44:03;3.03;;;1.60;;
48743;SDS011;34538;48.836;9.174;2023-04-03T11:46:48;2.35;;;1.17;;
48743;SDS011;34538;48.836;9.174;2023-04-03T11:58:43;4.13;;;1.27;;
48743;SDS011;34538;48.836;9.174;2023-04-03T12:01:48;3.78;;;1.25;;
48743;SDS011;34538;48.836;9.174;2023-04-03T12:04:17;2.70;;;1.20;;
48743;SDS011;34538;48.836;9.174;2023-04-03T12:09:57;3.22;;;1.10;;
48743;SDS011;34538;48.836;9.174;2023-04-03T12:12:35;2.75;;;1.00;;
48743;SDS011;34538;48.836;9.174;2023-04-03T12:21:20;3.22;;;1.50;;
48743;SDS011;34538;48.836;9.174;2023-04-03T12:23:59;5.40;;;1.60;;
48743;SDS011;34538;48.836;9.174;2023-04-03T12:26:30;3.17;;;1.30;;
48743;SDS011;34538;48.836;9.174;2023-04-03T12:29:01;2.53;;;1.20;;
48743;SDS011;34538;48.836;9.174;2023-04-03T12:31:38;3.38;;;1.48;;
48743;SDS011;34538;48.836;9.174;2023-04-03T12:34:14;3.03;;;1.08;;
48743;SDS011;34538;48.836;9.174;2023-04-03T12:36:55;3.20;;;1.50;;
48743;SDS011;34538;48.836;9.174;2023-04-03T12:42:24;8.38;;;1.60;;
48743;SDS011;34538;48.836;9.174;2023-04-03T12:45:08;1.95;;;1.27;;
48743;SDS011;34538;48.836;9.174;2023-04-03T12:47:42;3.10;;;1.27;;
48743;SDS011;34538;48.836;9.174;2023-04-03T12:50:20;2.63;;;1.30;;
48743;SDS011;34538;48.836;9.174;2023-04-03T12:52:51;4.57;;;1.50;;
48743;SDS011;34538;48.836;9.174;2023-04-03T12:55:22;3.13;;;1.88;;
48743;SDS011;34538;48.836;9.174;2023-04-03T12:57:49;3.72;;;1.25;;
48743;SDS011;34538;48.836;9.174;2023-04-03T13:03:04;2.65;;;1.20;;
48743;SDS011;34538;48.836;9.174;2023-04-03T13:05:34;5.85;;;1.27;;
48743;SDS011;34538;48.836;9.174;2023-04-03T13:08:02;2.33;;;1.25;;
48743;SDS011;34538;48.836;9.174;2023-04-03T13:10:31;2.75;;;1.35;;
48743;SDS011;34538;48.836;9.174;2023-04-03T13:13:16;3.85;;;1.73;;
48743;SDS011;34538;48.836;9.174;2023-04-03T13:15:44;5.15;;;1.98;;
48743;SDS011;34538;48.836;9.174;2023-04-03T13:18:27;2.13;;;1.47;;
48743;SDS011;34538;48.836;9.174;2023-04-03T13:20:58;2.95;;;1.50;;
48743;SDS011;34538;48.836;9.174;2023-04-03T13:23:28;5.57;;;1.75;;
48743;SDS011;34538;48.836;9.174;2023-04-03T13:25:56;1.98;;;1.20;;
48743;SDS011;34538;48.836;9.174;2023-04-03T13:28:28;3.88;;;1.23;;
48743;SDS011;34538;48.836;9.174;2023-04-03T13:30:59;2.13;;;1.20;;
48743;SDS011;34538;48.836;9.174;2023-04-03T13:33:32;1.45;;;1.17;;
48743;SDS011;34538;48.836;9.174;2023-04-03T13:36:05;2.63;;;1.40;;
48743;SDS011;34538;48.836;9.174;2023-04-03T13:38:35;2.35;;;1.33;;
48743;SDS011;34538;48.836;9.174;2023-04-03T13:41:03;2.85;;;1.48;;
48743;SDS011;34538;48.836;9.174;2023-04-03T13:43:33;2.50;;;1.43;;
48743;SDS011;34538;48.836;9.174;2023-04-03T13:46:04;4.35;;;1.63;;
48743;SDS011;34538;48.836;9.174;2023-04-03T13:48:48;1.92;;;1.13;;
48743;SDS011;34538;48.836;9.174;2023-04-03T13:51:21;4.82;;;1.73;;
48743;SDS011;34538;48.836;9.174;2023-04-03T13:53:51;2.20;;;1.27;;
48743;SDS011;34538;48.836;9.174;2023-04-03T13:56:24;1.20;;;1.00;;
48743;SDS011;34538;48.836;9.174;2023-04-03T13:59:18;4.80;;;1.40;;
48743;SDS011;34538;48.836;9.174;2023-04-03T14:01:49;3.38;;;1.20;;
48743;SDS011;34538;48.836;9.174;2023-04-03T14:04:20;2.10;;;1.13;;
48743;SDS011;34538;48.836;9.174;2023-04-03T14:06:50;3.35;;;1.52;;
48743;SDS011;34538;48.836;9.174;2023-04-03T14:09:17;4.32;;;1.63;;
48743;SDS011;34538;48.836;9.174;2023-04-03T14:11:46;3.47;;;1.63;;
48743;SDS011;34538;48.836;9.174;2023-04-03T14:14:15;2.55;;;1.30;;
48743;SDS011;34538;48.836;9.174;2023-04-03T14:16:46;2.72;;;1.55;;
48743;SDS011;34538;48.836;9.174;2023-04-03T14:19:20;2.20;;;1.17;;
48743;SDS011;34538;48.836;9.174;2023-04-03T14:21:50;2.38;;;1.33;;
48743;SDS011;34538;48.836;9.174;2023-04-03T14:24:18;1.85;;;1.15;;
48743;SDS011;34538;48.836;9.174;2023-04-03T14:26:46;2.22;;;1.27;;
48743;SDS011;34538;48.836;9.174;2023-04-03T14:29:14;3.33;;;1.50;;
48743;SDS011;34538;48.836;9.174;2023-04-03T14:31:43;1.35;;;0.95;;
48743;SDS011;34538;48.836;9.174;2023-04-03T14:34:11;1.80;;;1.25;;
48743;SDS011;34538;48.836;9.174;2023-04-03T14:36:38;1.77;;;1.10;;
48743;SDS011;34538;48.836;9.174;2023-04-03T14:39:08;2.67;;;1.40;;
48743;SDS011;34538;48.836;9.174;2023-04-03T14:41:37;2.10;;;1.38;;
48743;SDS011;34538;48.836;9.174;2023-04-03T14:44:04;3.58;;;1.33;;
48743;SDS011;34538;48.836;9.174;2023-04-03T14:46:32;1.60;;;1.27;;
48743;SDS011;34538;48.836;9.174;2023-04-03T14:49:01;2.42;;;1.48;;
48743;SDS011;34538;48.836;9.174;2023-04-03T14:51:32;2.42;;;1.30;;
48743;SDS011;34538;48.836;9.174;2023-04-03T14:54:00;1.67;;;1.20;;
48743;SDS011;34538;48.836;9.174;2023-04-03T14:56:28;1.75;;;1.15;;
48743;SDS011;34538;48.836;9.174;2023-04-03T14:58:56;3.22;;;1.30;;
48743;SDS011;34538;48.836;9.174;2023-04-03T15:01:24;2.60;;;1.25;;
48743;SDS011;34538;48.836;9.174;2023-04-03T15:03:52;2.55;;;1.38;;
48743;SDS011;34538;48.836;9.174;2023-04-03T15:06:19;4.25;;;1.50;;
48743;SDS011;34538;48.836;9.174;2023-04-03T15:08:47;1.55;;;1.15;;
48743;SDS011;34538;48.836;9.174;2023-04-03T15:11:14;4.07;;;1.58;;
48743;SDS011;34538;48.836;9.174;2023-04-03T15:13:42;4.28;;;1.50;;
48743;SDS011;34538;48.836;9.174;2023-04-03T15:16:13;4.55;;;1.35;;
48743;SDS011;34538;48.836;9.174;2023-04-03T15:18:42;2.92;;;1.42;;
48743;SDS011;34538;48.836;9.174;2023-04-03T15:21:09;4.68;;;1.40;;
48743;SDS011;34538;48.836;9.174;2023-04-03T15:23:36;4.60;;;1.50;;
48743;SDS011;34538;48.836;9.174;2023-04-03T15:26:03;5.28;;;1.42;;
48743;SDS011;34538;48.836;9.174;2023-04-03T15:28:32;2.78;;;1.42;;
48743;SDS011;34538;48.836;9.174;2023-04-03T15:31:01;2.90;;;1.35;;
48743;SDS011;34538;48.836;9.174;2023-04-03T15:33:29;4.65;;;1.98;;
48743;SDS011;34538;48.836;9.174;2023-04-03T15:35:56;3.17;;;1.38;;